sensor_id;sensor_type;location;lat;lon;timestamp;temperature;humidity
30520;DHT22;17300;50.374;8.006;2023-03-14T00:00:49;16.40;50.70
30520;DHT22;17300;50.374;8.006;2023-03-14T00:03:16;16.40;50.70
30520;DHT22;17300;50.374;8.006;2023-03-14T00:05:42;16.40;50.70
30520;DHT22;17300;50.374;8.006;2023-03-14T00:08:09;16.40;50.70
30520;DHT22;17300;50.374;8.006;2023-03-14T00:10:38;16.40;50.70
30520;DHT22;17300;50.374;8.006;2023-03-14T00:13:05;16.40;50.70
30520;DHT22;17300;50.374;8.006;2023-03-14T00:15:32;16.40;50.70
30520;DHT22;17300;50.374;8.006;2023-03-14T00:17:59;16.50;50.70
30520;DHT22;17300;50.374;8.006;2023-03-14T00:20:26;16.40;50.60
30520;DHT22;17300;50.374;8.006;2023-03-14T00:22:52;16.40;50.60
30520;DHT22;17300;50.374;8.006;2023-03-14T00:25:19;16.50;50.70
30520;DHT22;17300;50.374;8.006;2023-03-14T00:27:50;16.40;50.50
30520;DHT22;17300;50.374;8.006;2023-03-14T00:30:17;16.40;50.50
30520;DHT22;17300;50.374;8.006;2023-03-14T00:32:43;16.40;50.50
30520;DHT22;17300;50.374;8.006;2023-03-14T00:35:10;16.40;50.50
30520;DHT22;17300;50.374;8.006;2023-03-14T00:37:37;16.40;50.50
30520;DHT22;17300;50.374;8.006;2023-03-14T00:40:05;16.50;50.60
30520;DHT22;17300;50.374;8.006;2023-03-14T00:42:33;16.40;50.50
30520;DHT22;17300;50.374;8.006;2023-03-14T00:45:01;16.50;50.60
30520;DHT22;17300;50.374;8.006;2023-03-14T00:47:27;16.40;50.60
30520;DHT22;17300;50.374;8.006;2023-03-14T00:49:54;16.50;50.60
30520;DHT22;17300;50.374;8.006;2023-03-14T00:52:21;16.40;50.50
30520;DHT22;17300;50.374;8.006;2023-03-14T00:54:47;16.50;50.50
30520;DHT22;17300;50.374;8.006;2023-03-14T00:57:14;16.50;50.70
30520;DHT22;17300;50.374;8.006;2023-03-14T00:59:41;16.50;50.80
30520;DHT22;17300;50.374;8.006;2023-03-14T01:02:09;16.40;50.70
30520;DHT22;17300;50.374;8.006;2023-03-14T01:04:35;16.40;50.90
30520;DHT22;17300;50.374;8.006;2023-03-14T01:07:03;16.40;51.10
30520;DHT22;17300;50.374;8.006;2023-03-14T01:09:29;16.40;51.30
30520;DHT22;17300;50.374;8.006;2023-03-14T01:11:56;16.30;51.30
30520;DHT22;17300;50.374;8.006;2023-03-14T01:14:23;16.20;51.30
30520;DHT22;17300;50.374;8.006;2023-03-14T01:16:50;16.20;51.40
30520;DHT22;17300;50.374;8.006;2023-03-14T01:19:18;16.10;51.50
30520;DHT22;17300;50.374;8.006;2023-03-14T01:21:44;16.00;51.50
30520;DHT22;17300;50.374;8.006;2023-03-14T01:24:11;15.90;51.50
30520;DHT22;17300;50.374;8.006;2023-03-14T01:26:38;15.80;51.60
30520;DHT22;17300;50.374;8.006;2023-03-14T01:29:05;15.80;51.80
30520;DHT22;17300;50.374;8.006;2023-03-14T01:31:31;15.80;51.90
30520;DHT22;17300;50.374;8.006;2023-03-14T01:33:58;15.70;51.90
30520;DHT22;17300;50.374;8.006;2023-03-14T01:36:26;15.60;51.90
30520;DHT22;17300;50.374;8.006;2023-03-14T01:38:53;15.60;52.00
30520;DHT22;17300;50.374;8.006;2023-03-14T01:41:21;15.60;52.10
30520;DHT22;17300;50.374;8.006;2023-03-14T01:43:49;15.60;52.10
30520;DHT22;17300;50.374;8.006;2023-03-14T01:46:29;15.60;52.10
30520;DHT22;17300;50.374;8.006;2023-03-14T01:49:09;15.60;52.40
30520;DHT22;17300;50.374;8.006;2023-03-14T01:51:42;15.60;52.40
30520;DHT22;17300;50.374;8.006;2023-03-14T01:54:16;15.60;52.30
30520;DHT22;17300;50.374;8.006;2023-03-14T01:56:46;15.60;52.30
30520;DHT22;17300;50.374;8.006;2023-03-14T01:59:14;15.70;52.40
30520;DHT22;17300;50.374;8.006;2023-03-14T02:01:43;15.70;52.30
30520;DHT22;17300;50.374;8.006;2023-03-14T02:04:13;15.70;52.30
30520;DHT22;17300;50.374;8.006;2023-03-14T02:06:49;15.70;52.10
30520;DHT22;17300;50.374;8.006;2023-03-14T02:09:16;15.80;52.30
30520;DHT22;17300;50.374;8.006;2023-03-14T02:11:43;15.80;52.20
30520;DHT22;17300;50.374;8.006;2023-03-14T02:14:17;15.80;52.10
30520;DHT22;17300;50.374;8.006;2023-03-14T02:16:45;15.80;52.10
30520;DHT22;17300;50.374;8.006;2023-03-14T02:19:13;15.80;51.90
30520;DHT22;17300;50.374;8.006;2023-03-14T02:21:50;15.80;51.80
30520;DHT22;17300;50.374;8.006;2023-03-14T02:24:27;15.80;51.70
30520;DHT22;17300;50.374;8.006;2023-03-14T02:27:10;15.80;51.60
30520;DHT22;17300;50.374;8.006;2023-03-14T02:29:41;15.80;51.50
30520;DHT22;17300;50.374;8.006;2023-03-14T02:32:09;15.80;51.40
30520;DHT22;17300;50.374;8.006;2023-03-14T02:34:36;15.80;51.40
30520;DHT22;17300;50.374;8.006;2023-03-14T02:37:04;15.80;51.50
30520;DHT22;17300;50.374;8.006;2023-03-14T02:39:35;15.80;51.50
30520;DHT22;17300;50.374;8.006;2023-03-14T02:42:03;15.70;51.40
30520;DHT22;17300;50.374;8.006;2023-03-14T02:44:31;15.80;51.40
30520;DHT22;17300;50.374;8.006;2023-03-14T02:46:57;15.70;51.30
30520;DHT22;17300;50.374;8.006;2023-03-14T02:49:25;15.60;51.10
30520;DHT22;17300;50.374;8.006;2023-03-14T02:51:53;15.60;51.10
30520;DHT22;17300;50.374;8.006;2023-03-14T02:54:20;15.60;51.10
30520;DHT22;17300;50.374;8.006;2023-03-14T02:56:47;15.60;51.10
30520;DHT22;17300;50.374;8.006;2023-03-14T02:59:13;15.50;51.00
30520;DHT22;17300;50.374;8.006;2023-03-14T03:01:41;15.50;51.60
30520;DHT22;17300;50.374;8.006;2023-03-14T03:04:08;15.40;51.00
30520;DHT22;17300;50.374;8.006;2023-03-14T03:06:35;15.40;51.00
30520;DHT22;17300;50.374;8.006;2023-03-14T03:09:02;15.30;50.90
30520;DHT22;17300;50.374;8.006;2023-03-14T03:11:28;15.30;51.00
30520;DHT22;17300;50.374;8.006;2023-03-14T03:13:55;15.20;50.90
30520;DHT22;17300;50.374;8.006;2023-03-14T03:16:22;15.20;50.90
30520;DHT22;17300;50.374;8.006;2023-03-14T03:18:50;15.20;51.00
30520;DHT22;17300;50.374;8.006;2023-03-14T03:21:16;15.20;51.00
30520;DHT22;17300;50.374;8.006;2023-03-14T03:23:44;15.10;51.00
30520;DHT22;17300;50.374;8.006;2023-03-14T03:26:11;15.10;50.90
30520;DHT22;17300;50.374;8.006;2023-03-14T03:28:37;15.00;50.90
30520;DHT22;17300;50.374;8.006;2023-03-14T03:31:08;15.00;50.90
30520;DHT22;17300;50.374;8.006;2023-03-14T03:33:35;14.90;51.00
30520;DHT22;17300;50.374;8.006;2023-03-14T03:36:04;15.00;51.10
30520;DHT22;17300;50.374;8.006;2023-03-14T03:38:31;14.90;51.00
30520;DHT22;17300;50.374;8.006;2023-03-14T03:40:58;14.90;51.10
30520;DHT22;17300;50.374;8.006;2023-03-14T03:43:24;14.90;51.10
30520;DHT22;17300;50.374;8.006;2023-03-14T03:45:51;14.90;51.10
30520;DHT22;17300;50.374;8.006;2023-03-14T03:48:18;14.80;51.00
30520;DHT22;17300;50.374;8.006;2023-03-14T03:50:45;14.80;51.10
30520;DHT22;17300;50.374;8.006;2023-03-14T03:53:13;14.70;51.10
30520;DHT22;17300;50.374;8.006;2023-03-14T03:55:41;14.70;51.20
30520;DHT22;17300;50.374;8.006;2023-03-14T03:58:08;14.70;51.40
30520;DHT22;17300;50.374;8.006;2023-03-14T04:00:35;14.70;51.50
30520;DHT22;17300;50.374;8.006;2023-03-14T04:03:01;14.70;51.60
30520;DHT22;17300;50.374;8.006;2023-03-14T04:05:28;14.70;51.70
30520;DHT22;17300;50.374;8.006;2023-03-14T04:07:55;14.80;51.80
30520;DHT22;17300;50.374;8.006;2023-03-14T04:10:23;14.80;51.80
30520;DHT22;17300;50.374;8.006;2023-03-14T04:12:49;14.90;51.90
30520;DHT22;17300;50.374;8.006;2023-03-14T04:15:16;14.90;51.80
30520;DHT22;17300;50.374;8.006;2023-03-14T04:17:43;15.00;51.80
30520;DHT22;17300;50.374;8.006;2023-03-14T04:20:10;15.00;51.70
30520;DHT22;17300;50.374;8.006;2023-03-14T04:22:38;15.10;51.70
30520;DHT22;17300;50.374;8.006;2023-03-14T04:25:06;15.10;51.70
30520;DHT22;17300;50.374;8.006;2023-03-14T04:27:34;15.10;51.70
30520;DHT22;17300;50.374;8.006;2023-03-14T04:30:01;15.20;52.30
30520;DHT22;17300;50.374;8.006;2023-03-14T04:32:28;15.20;51.70
30520;DHT22;17300;50.374;8.006;2023-03-14T04:34:55;15.20;51.70
30520;DHT22;17300;50.374;8.006;2023-03-14T04:37:21;15.30;51.70
30520;DHT22;17300;50.374;8.006;2023-03-14T04:39:48;15.30;51.60
30520;DHT22;17300;50.374;8.006;2023-03-14T04:42:14;15.30;51.60
30520;DHT22;17300;50.374;8.006;2023-03-14T04:44:42;15.40;51.60
30520;DHT22;17300;50.374;8.006;2023-03-14T04:47:09;15.40;51.60
30520;DHT22;17300;50.374;8.006;2023-03-14T04:49:36;15.40;51.60
30520;DHT22;17300;50.374;8.006;2023-03-14T04:52:03;15.40;51.60
30520;DHT22;17300;50.374;8.006;2023-03-14T04:54:30;15.40;51.60
30520;DHT22;17300;50.374;8.006;2023-03-14T04:56:56;15.50;51.60
30520;DHT22;17300;50.374;8.006;2023-03-14T04:59:23;15.50;51.60
30520;DHT22;17300;50.374;8.006;2023-03-14T05:01:51;15.50;51.60
30520;DHT22;17300;50.374;8.006;2023-03-14T05:04:17;15.50;51.50
30520;DHT22;17300;50.374;8.006;2023-03-14T05:06:44;15.50;51.60
30520;DHT22;17300;50.374;8.006;2023-03-14T05:09:11;15.50;51.50
30520;DHT22;17300;50.374;8.006;2023-03-14T05:11:37;15.50;51.40
30520;DHT22;17300;50.374;8.006;2023-03-14T05:14:04;15.60;51.50
30520;DHT22;17300;50.374;8.006;2023-03-14T05:16:31;15.60;51.50
30520;DHT22;17300;50.374;8.006;2023-03-14T05:18:59;15.60;51.40
30520;DHT22;17300;50.374;8.006;2023-03-14T05:21:26;15.50;51.30
30520;DHT22;17300;50.374;8.006;2023-03-14T05:23:53;15.60;51.40
30520;DHT22;17300;50.374;8.006;2023-03-14T05:26:20;15.60;51.40
30520;DHT22;17300;50.374;8.006;2023-03-14T05:28:46;15.60;51.30
30520;DHT22;17300;50.374;8.006;2023-03-14T05:31:13;15.60;51.30
30520;DHT22;17300;50.374;8.006;2023-03-14T05:33:40;15.60;51.30
30520;DHT22;17300;50.374;8.006;2023-03-14T05:36:08;15.60;51.30
30520;DHT22;17300;50.374;8.006;2023-03-14T05:38:35;15.60;51.30
30520;DHT22;17300;50.374;8.006;2023-03-14T05:41:02;15.60;51.30
30520;DHT22;17300;50.374;8.006;2023-03-14T05:43:29;15.60;51.30
30520;DHT22;17300;50.374;8.006;2023-03-14T05:45:55;15.60;51.20
30520;DHT22;17300;50.374;8.006;2023-03-14T05:48:22;15.60;51.20
30520;DHT22;17300;50.374;8.006;2023-03-14T05:50:54;15.60;51.10
30520;DHT22;17300;50.374;8.006;2023-03-14T05:53:22;15.60;51.00
30520;DHT22;17300;50.374;8.006;2023-03-14T05:55:51;15.60;50.90
30520;DHT22;17300;50.374;8.006;2023-03-14T05:58:18;15.60;50.80
30520;DHT22;17300;50.374;8.006;2023-03-14T06:00:44;15.60;50.70
30520;DHT22;17300;50.374;8.006;2023-03-14T06:03:11;15.50;50.50
30520;DHT22;17300;50.374;8.006;2023-03-14T06:05:38;15.50;50.40
30520;DHT22;17300;50.374;8.006;2023-03-14T06:08:05;15.50;50.30
30520;DHT22;17300;50.374;8.006;2023-03-14T06:10:34;15.40;50.20
30520;DHT22;17300;50.374;8.006;2023-03-14T06:13:01;15.40;50.20
30520;DHT22;17300;50.374;8.006;2023-03-14T06:15:28;15.30;50.10
30520;DHT22;17300;50.374;8.006;2023-03-14T06:17:55;15.30;50.30
30520;DHT22;17300;50.374;8.006;2023-03-14T06:20:22;15.20;50.30
30520;DHT22;17300;50.374;8.006;2023-03-14T06:22:48;15.20;50.40
30520;DHT22;17300;50.374;8.006;2023-03-14T06:25:15;15.20;50.50
30520;DHT22;17300;50.374;8.006;2023-03-14T06:27:43;15.20;50.80
30520;DHT22;17300;50.374;8.006;2023-03-14T06:30:10;15.10;50.90
30520;DHT22;17300;50.374;8.006;2023-03-14T06:32:37;15.10;51.00
30520;DHT22;17300;50.374;8.006;2023-03-14T06:35:05;15.20;51.10
30520;DHT22;17300;50.374;8.006;2023-03-14T06:37:31;15.20;51.00
30520;DHT22;17300;50.374;8.006;2023-03-14T06:39:58;15.20;51.00
30520;DHT22;17300;50.374;8.006;2023-03-14T06:42:25;15.20;51.10
30520;DHT22;17300;50.374;8.006;2023-03-14T06:44:53;15.20;51.20
30520;DHT22;17300;50.374;8.006;2023-03-14T06:47:19;15.20;51.30
30520;DHT22;17300;50.374;8.006;2023-03-14T06:49:46;15.30;51.50
30520;DHT22;17300;50.374;8.006;2023-03-14T06:52:13;15.40;51.60
30520;DHT22;17300;50.374;8.006;2023-03-14T06:54:39;15.50;52.40
30520;DHT22;17300;50.374;8.006;2023-03-14T06:57:06;15.60;52.50
30520;DHT22;17300;50.374;8.006;2023-03-14T06:59:33;15.60;51.80
30520;DHT22;17300;50.374;8.006;2023-03-14T07:02:02;15.80;52.00
30520;DHT22;17300;50.374;8.006;2023-03-14T07:04:29;15.90;51.90
30520;DHT22;17300;50.374;8.006;2023-03-14T07:06:56;16.00;51.90
30520;DHT22;17300;50.374;8.006;2023-03-14T07:09:22;16.10;51.70
30520;DHT22;17300;50.374;8.006;2023-03-14T07:11:49;16.20;51.60
30520;DHT22;17300;50.374;8.006;2023-03-14T07:14:16;16.30;51.50
30520;DHT22;17300;50.374;8.006;2023-03-14T07:16:42;16.40;51.40
30520;DHT22;17300;50.374;8.006;2023-03-14T07:19:11;16.40;51.20
30520;DHT22;17300;50.374;8.006;2023-03-14T07:21:38;16.40;51.60
30520;DHT22;17300;50.374;8.006;2023-03-14T07:24:05;16.50;51.00
30520;DHT22;17300;50.374;8.006;2023-03-14T07:26:32;16.50;50.90
30520;DHT22;17300;50.374;8.006;2023-03-14T07:28:59;16.50;50.90
30520;DHT22;17300;50.374;8.006;2023-03-14T07:31:28;16.50;50.90
30520;DHT22;17300;50.374;8.006;2023-03-14T07:33:55;16.50;51.00
30520;DHT22;17300;50.374;8.006;2023-03-14T07:36:23;16.50;51.00
30520;DHT22;17300;50.374;8.006;2023-03-14T07:38:50;16.60;51.00
30520;DHT22;17300;50.374;8.006;2023-03-14T07:41:18;16.60;50.90
30520;DHT22;17300;50.374;8.006;2023-03-14T07:43:46;16.60;50.80
30520;DHT22;17300;50.374;8.006;2023-03-14T07:46:12;16.60;50.70
30520;DHT22;17300;50.374;8.006;2023-03-14T07:48:39;16.60;50.80
30520;DHT22;17300;50.374;8.006;2023-03-14T07:51:06;16.60;50.80
30520;DHT22;17300;50.374;8.006;2023-03-14T07:53:34;16.60;50.90
30520;DHT22;17300;50.374;8.006;2023-03-14T07:56:01;16.60;51.00
30520;DHT22;17300;50.374;8.006;2023-03-14T07:58:28;16.70;51.30
30520;DHT22;17300;50.374;8.006;2023-03-14T08:00:54;16.80;51.50
30520;DHT22;17300;50.374;8.006;2023-03-14T08:03:21;16.90;51.70
30520;DHT22;17300;50.374;8.006;2023-03-14T08:05:48;17.00;51.80
30520;DHT22;17300;50.374;8.006;2023-03-14T08:08:16;17.10;51.70
30520;DHT22;17300;50.374;8.006;2023-03-14T08:10:44;17.20;51.60
30520;DHT22;17300;50.374;8.006;2023-03-14T08:13:11;17.40;51.40
30520;DHT22;17300;50.374;8.006;2023-03-14T08:15:38;17.50;51.40
30520;DHT22;17300;50.374;8.006;2023-03-14T08:18:05;17.50;51.40
30520;DHT22;17300;50.374;8.006;2023-03-14T08:20:32;17.70;51.30
30520;DHT22;17300;50.374;8.006;2023-03-14T08:22:59;17.80;51.10
30520;DHT22;17300;50.374;8.006;2023-03-14T08:25:27;17.80;50.80
30520;DHT22;17300;50.374;8.006;2023-03-14T08:27:55;17.90;50.60
30520;DHT22;17300;50.374;8.006;2023-03-14T08:30:23;17.90;50.30
30520;DHT22;17300;50.374;8.006;2023-03-14T08:32:49;17.90;50.20
30520;DHT22;17300;50.374;8.006;2023-03-14T08:35:16;17.90;50.10
30520;DHT22;17300;50.374;8.006;2023-03-14T08:37:43;17.90;50.00
30520;DHT22;17300;50.374;8.006;2023-03-14T08:40:10;17.90;49.90
30520;DHT22;17300;50.374;8.006;2023-03-14T08:42:38;17.90;49.90
30520;DHT22;17300;50.374;8.006;2023-03-14T08:45:09;17.80;49.80
30520;DHT22;17300;50.374;8.006;2023-03-14T08:47:36;17.80;49.80
30520;DHT22;17300;50.374;8.006;2023-03-14T08:50:04;17.90;50.60
30520;DHT22;17300;50.374;8.006;2023-03-14T08:52:32;17.90;50.10
30520;DHT22;17300;50.374;8.006;2023-03-14T08:54:59;17.90;50.10
30520;DHT22;17300;50.374;8.006;2023-03-14T08:57:25;17.90;50.00
30520;DHT22;17300;50.374;8.006;2023-03-14T08:59:53;17.90;49.90
30520;DHT22;17300;50.374;8.006;2023-03-14T09:02:22;17.90;49.90
30520;DHT22;17300;50.374;8.006;2023-03-14T09:04:50;17.90;49.80
30520;DHT22;17300;50.374;8.006;2023-03-14T09:07:16;17.90;49.80
30520;DHT22;17300;50.374;8.006;2023-03-14T09:09:43;17.90;49.80
30520;DHT22;17300;50.374;8.006;2023-03-14T09:12:10;17.80;49.80
30520;DHT22;17300;50.374;8.006;2023-03-14T09:14:38;17.80;49.80
30520;DHT22;17300;50.374;8.006;2023-03-14T09:17:04;17.80;49.90
30520;DHT22;17300;50.374;8.006;2023-03-14T09:19:33;17.80;49.90
30520;DHT22;17300;50.374;8.006;2023-03-14T09:22:00;17.90;49.90
30520;DHT22;17300;50.374;8.006;2023-03-14T09:24:27;17.90;49.90
30520;DHT22;17300;50.374;8.006;2023-03-14T09:26:54;17.90;49.90
30520;DHT22;17300;50.374;8.006;2023-03-14T09:29:21;17.90;49.90
30520;DHT22;17300;50.374;8.006;2023-03-14T09:31:48;17.90;49.90
30520;DHT22;17300;50.374;8.006;2023-03-14T09:34:15;17.90;49.90
30520;DHT22;17300;50.374;8.006;2023-03-14T09:36:43;17.90;50.00
30520;DHT22;17300;50.374;8.006;2023-03-14T09:39:10;17.90;50.00
30520;DHT22;17300;50.374;8.006;2023-03-14T09:41:38;18.00;50.10
30520;DHT22;17300;50.374;8.006;2023-03-14T09:44:10;18.00;50.00
30520;DHT22;17300;50.374;8.006;2023-03-14T09:46:39;18.00;50.00
30520;DHT22;17300;50.374;8.006;2023-03-14T09:49:19;18.10;50.20
30520;DHT22;17300;50.374;8.006;2023-03-14T09:51:50;18.10;50.00
30520;DHT22;17300;50.374;8.006;2023-03-14T09:54:31;18.20;50.10
30520;DHT22;17300;50.374;8.006;2023-03-14T09:56:58;18.20;49.70
30520;DHT22;17300;50.374;8.006;2023-03-14T09:59:26;18.20;49.70
30520;DHT22;17300;50.374;8.006;2023-03-14T10:01:57;18.20;49.60
30520;DHT22;17300;50.374;8.006;2023-03-14T10:04:24;18.30;49.60
30520;DHT22;17300;50.374;8.006;2023-03-14T10:06:54;18.20;49.50
30520;DHT22;17300;50.374;8.006;2023-03-14T10:09:22;18.20;49.60
30520;DHT22;17300;50.374;8.006;2023-03-14T10:11:55;18.20;49.70
30520;DHT22;17300;50.374;8.006;2023-03-14T10:14:31;18.20;50.00
30520;DHT22;17300;50.374;8.006;2023-03-14T10:17:09;18.20;50.10
30520;DHT22;17300;50.374;8.006;2023-03-14T10:19:36;18.20;50.10
30520;DHT22;17300;50.374;8.006;2023-03-14T10:22:05;18.20;50.10
30520;DHT22;17300;50.374;8.006;2023-03-14T10:24:33;18.20;50.00
30520;DHT22;17300;50.374;8.006;2023-03-14T10:27:02;18.20;50.20
30520;DHT22;17300;50.374;8.006;2023-03-14T10:29:30;18.20;49.90
30520;DHT22;17300;50.374;8.006;2023-03-14T10:32:00;18.10;49.90
30520;DHT22;17300;50.374;8.006;2023-03-14T10:34:29;18.10;50.00
30520;DHT22;17300;50.374;8.006;2023-03-14T10:36:58;18.10;50.00
30520;DHT22;17300;50.374;8.006;2023-03-14T10:39:37;18.10;50.40
30520;DHT22;17300;50.374;8.006;2023-03-14T10:42:14;18.00;50.70
30520;DHT22;17300;50.374;8.006;2023-03-14T10:44:42;18.10;50.70
30520;DHT22;17300;50.374;8.006;2023-03-14T10:47:17;18.10;50.70
30520;DHT22;17300;50.374;8.006;2023-03-14T10:49:45;18.00;50.60
30520;DHT22;17300;50.374;8.006;2023-03-14T10:52:20;18.00;50.60
30520;DHT22;17300;50.374;8.006;2023-03-14T10:54:55;18.00;51.00
30520;DHT22;17300;50.374;8.006;2023-03-14T10:57:23;18.00;51.10
30520;DHT22;17300;50.374;8.006;2023-03-14T10:59:51;18.00;51.10
30520;DHT22;17300;50.374;8.006;2023-03-14T11:02:37;17.90;51.10
30520;DHT22;17300;50.374;8.006;2023-03-14T11:05:21;17.90;51.20
30520;DHT22;17300;50.374;8.006;2023-03-14T11:07:52;17.90;51.10
30520;DHT22;17300;50.374;8.006;2023-03-14T11:10:29;17.80;51.10
30520;DHT22;17300;50.374;8.006;2023-03-14T11:13:04;17.80;51.20
30520;DHT22;17300;50.374;8.006;2023-03-14T11:15:34;17.70;51.30
30520;DHT22;17300;50.374;8.006;2023-03-14T11:18:27;17.60;50.90
30520;DHT22;17300;50.374;8.006;2023-03-14T11:21:00;17.50;50.90
30520;DHT22;17300;50.374;8.006;2023-03-14T11:23:32;17.30;50.00
30520;DHT22;17300;50.374;8.006;2023-03-14T11:26:17;17.00;50.00
30520;DHT22;17300;50.374;8.006;2023-03-14T11:28:49;16.70;50.10
30520;DHT22;17300;50.374;8.006;2023-03-14T11:31:19;16.40;50.00
30520;DHT22;17300;50.374;8.006;2023-03-14T11:33:52;16.20;50.10
30520;DHT22;17300;50.374;8.006;2023-03-14T11:36:25;15.90;50.30
30520;DHT22;17300;50.374;8.006;2023-03-14T11:38:57;15.70;50.40
30520;DHT22;17300;50.374;8.006;2023-03-14T11:41:30;15.50;50.50
30520;DHT22;17300;50.374;8.006;2023-03-14T11:44:00;15.30;50.70
30520;DHT22;17300;50.374;8.006;2023-03-14T11:46:32;15.10;50.70
30520;DHT22;17300;50.374;8.006;2023-03-14T11:49:05;14.90;50.90
30520;DHT22;17300;50.374;8.006;2023-03-14T11:51:35;14.70;51.10
30520;DHT22;17300;50.374;8.006;2023-03-14T11:54:08;14.60;51.00
30520;DHT22;17300;50.374;8.006;2023-03-14T11:56:44;14.50;51.20
30520;DHT22;17300;50.374;8.006;2023-03-14T11:59:15;14.30;51.40
30520;DHT22;17300;50.374;8.006;2023-03-14T12:01:52;14.30;51.70
30520;DHT22;17300;50.374;8.006;2023-03-14T12:04:28;14.20;52.00
30520;DHT22;17300;50.374;8.006;2023-03-14T12:07:03;14.20;52.30
30520;DHT22;17300;50.374;8.006;2023-03-14T12:09:31;14.20;52.60
30520;DHT22;17300;50.374;8.006;2023-03-14T12:12:01;14.30;52.70
30520;DHT22;17300;50.374;8.006;2023-03-14T12:14:31;14.30;52.80
30520;DHT22;17300;50.374;8.006;2023-03-14T12:17:04;14.40;52.90
30520;DHT22;17300;50.374;8.006;2023-03-14T12:19:36;14.40;53.30
30520;DHT22;17300;50.374;8.006;2023-03-14T12:22:23;14.50;53.60
30520;DHT22;17300;50.374;8.006;2023-03-14T12:24:54;14.60;53.20
30520;DHT22;17300;50.374;8.006;2023-03-14T12:27:44;14.80;53.20
30520;DHT22;17300;50.374;8.006;2023-03-14T12:30:18;14.90;53.50
30520;DHT22;17300;50.374;8.006;2023-03-14T12:36:02;15.10;52.90
30520;DHT22;17300;50.374;8.006;2023-03-14T12:41:22;15.20;52.40
30520;DHT22;17300;50.374;8.006;2023-03-14T12:43:51;15.30;52.20
30520;DHT22;17300;50.374;8.006;2023-03-14T12:46:23;15.40;52.30
30520;DHT22;17300;50.374;8.006;2023-03-14T12:48:55;15.50;52.90
30520;DHT22;17300;50.374;8.006;2023-03-14T12:51:29;15.60;53.00
30520;DHT22;17300;50.374;8.006;2023-03-14T12:57:13;15.90;52.30
30520;DHT22;17300;50.374;8.006;2023-03-14T12:59:48;16.00;51.90
30520;DHT22;17300;50.374;8.006;2023-03-14T13:02:25;16.00;51.50
30520;DHT22;17300;50.374;8.006;2023-03-14T13:05:01;16.10;52.00
30520;DHT22;17300;50.374;8.006;2023-03-14T13:07:35;16.10;52.00
30520;DHT22;17300;50.374;8.006;2023-03-14T13:10:20;16.10;51.60
30520;DHT22;17300;50.374;8.006;2023-03-14T13:12:53;16.00;50.70
30520;DHT22;17300;50.374;8.006;2023-03-14T13:15:26;16.00;50.40
30520;DHT22;17300;50.374;8.006;2023-03-14T13:17:56;15.90;50.80
30520;DHT22;17300;50.374;8.006;2023-03-14T13:20:30;15.90;51.40
30520;DHT22;17300;50.374;8.006;2023-03-14T13:22:57;15.90;51.60
30520;DHT22;17300;50.374;8.006;2023-03-14T13:25:29;16.00;51.70
30520;DHT22;17300;50.374;8.006;2023-03-14T13:27:56;16.00;51.40
30520;DHT22;17300;50.374;8.006;2023-03-14T13:30:27;16.10;51.50
30520;DHT22;17300;50.374;8.006;2023-03-14T13:32:55;16.10;51.30
30520;DHT22;17300;50.374;8.006;2023-03-14T13:35:24;16.20;50.70
30520;DHT22;17300;50.374;8.006;2023-03-14T13:37:59;16.10;49.70
30520;DHT22;17300;50.374;8.006;2023-03-14T13:40:30;15.90;48.90
30520;DHT22;17300;50.374;8.006;2023-03-14T13:43:05;15.70;48.30
30520;DHT22;17300;50.374;8.006;2023-03-14T13:45:44;15.40;48.30
30520;DHT22;17300;50.374;8.006;2023-03-14T13:48:12;15.00;48.70
30520;DHT22;17300;50.374;8.006;2023-03-14T13:50:51;14.70;48.80
30520;DHT22;17300;50.374;8.006;2023-03-14T13:53:19;14.40;49.40
30520;DHT22;17300;50.374;8.006;2023-03-14T13:55:46;14.20;49.70
30520;DHT22;17300;50.374;8.006;2023-03-14T13:58:27;14.00;50.10
30520;DHT22;17300;50.374;8.006;2023-03-14T14:01:03;13.80;51.20
30520;DHT22;17300;50.374;8.006;2023-03-14T14:03:32;13.70;51.00
30520;DHT22;17300;50.374;8.006;2023-03-14T14:05:59;13.70;50.90
30520;DHT22;17300;50.374;8.006;2023-03-14T14:08:26;13.60;51.10
30520;DHT22;17300;50.374;8.006;2023-03-14T14:10:56;13.60;51.10
30520;DHT22;17300;50.374;8.006;2023-03-14T14:13:25;13.60;51.10
30520;DHT22;17300;50.374;8.006;2023-03-14T14:15:53;13.50;51.10
30520;DHT22;17300;50.374;8.006;2023-03-14T14:18:24;13.50;51.50
30520;DHT22;17300;50.374;8.006;2023-03-14T14:20:53;13.50;51.70
30520;DHT22;17300;50.374;8.006;2023-03-14T14:23:22;13.50;51.60
30520;DHT22;17300;50.374;8.006;2023-03-14T14:25:51;13.50;51.80
30520;DHT22;17300;50.374;8.006;2023-03-14T14:28:24;13.50;51.70
30520;DHT22;17300;50.374;8.006;2023-03-14T14:31:04;13.50;51.70
30520;DHT22;17300;50.374;8.006;2023-03-14T14:33:40;13.40;51.30
30520;DHT22;17300;50.374;8.006;2023-03-14T14:36:16;13.40;51.20
30520;DHT22;17300;50.374;8.006;2023-03-14T14:38:50;13.30;50.90
30520;DHT22;17300;50.374;8.006;2023-03-14T14:41:16;13.10;50.70
30520;DHT22;17300;50.374;8.006;2023-03-14T14:43:43;13.00;50.60
30520;DHT22;17300;50.374;8.006;2023-03-14T14:46:16;12.90;50.50
30520;DHT22;17300;50.374;8.006;2023-03-14T14:48:45;12.70;50.40
30520;DHT22;17300;50.374;8.006;2023-03-14T14:51:25;12.50;50.20
30520;DHT22;17300;50.374;8.006;2023-03-14T14:54:02;12.30;50.90
30520;DHT22;17300;50.374;8.006;2023-03-14T14:56:35;12.20;51.60
30520;DHT22;17300;50.374;8.006;2023-03-14T14:59:04;12.10;51.60
30520;DHT22;17300;50.374;8.006;2023-03-14T15:01:34;12.00;51.60
30520;DHT22;17300;50.374;8.006;2023-03-14T15:04:04;11.90;51.80
30520;DHT22;17300;50.374;8.006;2023-03-14T15:06:35;11.80;51.80
30520;DHT22;17300;50.374;8.006;2023-03-14T15:09:02;11.70;51.80
30520;DHT22;17300;50.374;8.006;2023-03-14T15:11:29;11.70;52.00
30520;DHT22;17300;50.374;8.006;2023-03-14T15:13:56;11.70;52.50
30520;DHT22;17300;50.374;8.006;2023-03-14T15:16:27;11.70;52.60
30520;DHT22;17300;50.374;8.006;2023-03-14T15:18:55;11.60;52.80
30520;DHT22;17300;50.374;8.006;2023-03-14T15:21:25;11.60;53.10
30520;DHT22;17300;50.374;8.006;2023-03-14T15:23:52;11.60;53.20
30520;DHT22;17300;50.374;8.006;2023-03-14T15:26:20;11.70;53.20
30520;DHT22;17300;50.374;8.006;2023-03-14T15:28:48;11.70;53.30
30520;DHT22;17300;50.374;8.006;2023-03-14T15:31:16;11.70;53.10
30520;DHT22;17300;50.374;8.006;2023-03-14T15:33:44;11.70;53.10
30520;DHT22;17300;50.374;8.006;2023-03-14T15:36:21;11.70;53.00
30520;DHT22;17300;50.374;8.006;2023-03-14T15:38:51;11.70;53.00
30520;DHT22;17300;50.374;8.006;2023-03-14T15:41:18;11.80;52.90
30520;DHT22;17300;50.374;8.006;2023-03-14T15:43:45;11.80;52.80
30520;DHT22;17300;50.374;8.006;2023-03-14T15:46:13;11.80;52.90
30520;DHT22;17300;50.374;8.006;2023-03-14T15:48:42;11.80;53.00
30520;DHT22;17300;50.374;8.006;2023-03-14T15:51:09;11.80;52.80